Nearby METAR Reports

Meteorological Terminal Air Report (METAR)

K3I2 - Pt Pleasant, West Virginia, USA
Distance from station: S 11mi, 18km
Updated: Tue, 07-Dec-2021 3:55am EST
Clear
Clear
 Wind from WSW
Wind: WSW 3 mph , 6 km/h
Temperature: 28°F , -2°C
Dew Point: 19°F , -7°C
Humidity: 69%
Barometer: 30.28 inHg , 1025.4 hPa
Clouds: Clear
Visibility: 10 miles , 16 km
2021/12/07 08:55 K3I2 070855Z AUTO 25003KT 10SM CLR M02/M07 A3028 RMK AO2 T10201072
KUNI - Athens, Ohio, USA
Distance from station: NW 13mi, 21km
Updated: Tue, 07-Dec-2021 3:55am EST
Clear
Clear
 Wind from WNW
Wind: WNW 10 mph , 17 km/h, Gust: 16 mph , 26 km/h
Temperature: 27°F , -3°C
Wind Chill: 18°F , -8°C
Dew Point: 9°F , -13°C
Humidity: 46%
Barometer: 30.25 inHg , 1024.4 hPa
Clouds: Clear
Visibility: 10 miles , 16 km
2021/12/07 08:55 KUNI 070855Z AUTO 29009G14KT 10SM CLR M03/M13 A3025 RMK AO2 T10351129
 
KPKB - Parkersburg, West Virginia, USA
Distance from station: ENE 40mi, 65km
Updated: Tue, 07-Dec-2021 3:53am EST
Clear
Clear
 Wind from W
Wind: W 8 mph , 13 km/h
Temperature: 27°F , -3°C
Wind Chill: 19°F , -7°C
Dew Point: 16°F , -9°C
Humidity: 64%
Barometer: 30.23 inHg , 1023.7 hPa
Clouds: Clear
Visibility: 10 miles , 16 km
2021/12/07 08:53 KPKB 070853Z AUTO 28007KT 10SM CLR M03/M09 A3023 RMK AO2 SLP245 T10281094 53022
KCRW - Charleston, West Virginia, USA
Distance from station: SSE 55mi, 88km
Updated: Tue, 07-Dec-2021 3:54am EST
Clear
Clear
 Wind from W
Wind: W 7 mph , 11 km/h
Temperature: 28°F , -2°C
Wind Chill: 21°F , -6°C
Dew Point: 25°F , -4°C
Humidity: 86%
Barometer: 30.23 inHg , 1023.7 hPa
Clouds: Clear
Visibility: 10 miles , 16 km
2021/12/07 08:54 KCRW 070854Z 27006KT 10SM CLR M02/M04 A3023 RMK AO2 SLP241 T10221044 53013
 
KHTS - Huntington, West Virginia, USA
Distance from station: SSW 55mi, 89km
Updated: Tue, 07-Dec-2021 3:51am EST
Clear
Clear
 Wind from WNW
Wind: WNW 6 mph , 9 km/h
Temperature: 28°F , -2°C
Wind Chill: 21°F , -6°C
Dew Point: 19°F , -7°C
Humidity: 69%
Barometer: 30.23 inHg , 1023.7 hPa
Clouds: Clear
Visibility: 10 miles , 16 km
2021/12/07 08:51 KHTS 070851Z 30005KT 10SM CLR M02/M07 A3023 RMK AO2 SLP244 T10171067 51013 $
KLHQ - Lancaster, Ohio, USA
Distance from station: NW 56mi, 91km
Updated: Tue, 07-Dec-2021 3:53am EST
Clear
Clear
 Wind from W
Wind: W 8 mph , 13 km/h
Temperature: 23°F , -5°C
Wind Chill: 14°F , -10°C
Dew Point: 10°F , -12°C
Humidity: 58%
Barometer: 30.25 inHg , 1024.4 hPa
Clouds: Clear
Visibility: 10 miles , 16 km
2021/12/07 08:53 KLHQ 070853Z AUTO 27007KT 10SM CLR M05/M12 A3025 RMK AO2 SLP251 T10501117 51018
 
KZZV - Zanesville, Ohio, USA
Distance from station: N 61mi, 99km
Updated: Tue, 07-Dec-2021 3:53am EST
Clear
Clear
 Wind from W
Wind: W 6 mph , 9 km/h
Temperature: 25°F , -4°C
Wind Chill: 18°F , -8°C
Dew Point: 12°F , -11°C
Humidity: 59%
Barometer: 30.22 inHg , 1023.4 hPa
Clouds: Clear
Visibility: 10 miles , 16 km
2021/12/07 08:53 KZZV 070853Z AUTO 28005KT 10SM CLR M04/M11 A3022 RMK AO2 SLP243 T10441111 51027
KLCK - Rickenbacker Ang, Ohio, USA
Distance from station: NW 68mi, 110km
Updated: Tue, 07-Dec-2021 3:55am EST
Clear
Clear
 Wind from W
Wind: W 8 mph , 13 km/h
Temperature: 21°F , -6°C
Wind Chill: 11°F , -12°C
Dew Point: 10°F , -12°C
Humidity: 63%
Barometer: 30.25 inHg , 1024.4 hPa
Clouds: Clear
Visibility: 10 miles , 16 km
2021/12/07 08:55 KLCK 070855Z AUTO 28007KT 10SM CLR M06/M12 A3025 RMK AO2 T10571116
 
KVTA - Newark, Ohio, USA
Distance from station: NNW 68mi, 110km
Updated: Tue, 07-Dec-2021 3:54am EST
Clear
Clear
 Wind from WSW
Wind: WSW 5 mph , 7 km/h
Temperature: 25°F , -4°C
Wind Chill: 19°F , -7°C
Dew Point: 12°F , -11°C
Humidity: 59%
Barometer: 30.22 inHg , 1023.4 hPa
Clouds: Clear
Visibility: 10 miles , 16 km
2021/12/07 08:54 KVTA 070854Z AUTO 24004KT 10SM CLR M04/M11 A3022 RMK AO2 SLP242 T10391111 51021